Time;durP1;ratioP1;P1;durP2;ratioP2;P2;SDS_P1;SDS_P2;PMS_P1;PMS_P2;Temp;Humidity;BMP_temperature;BMP_pressure;BME280_temperature;BME280_humidity;BME280_pressure;Samples;Min_cycle;Max_cycle;Signal;HPM_P1;HPM_P2
2021/12/02 00:00:37;;;;;;;2.13;1.58;;;3.90;99.90;;;;;;4930307;28;88996;-39
2021/12/02 00:03:07;;;;;;;9.65;1.70;;;4.00;99.90;;;;;;4929839;28;88459;-40
2021/12/02 00:05:33;;;;;;;2.45;1.40;;;4.00;99.90;;;;;;4929546;28;86715;-40
2021/12/02 00:07:58;;;;;;;7.72;2.08;;;3.90;99.90;;;;;;4928759;28;89219;-40
2021/12/02 00:10:28;;;;;;;3.63;1.23;;;3.90;99.90;;;;;;4929427;28;88878;-37
2021/12/02 00:12:56;;;;;;;7.47;1.90;;;3.90;99.90;;;;;;4928890;28;88156;-40
2021/12/02 00:15:25;;;;;;;4.57;2.13;;;3.80;99.90;;;;;;4930126;28;88346;-40
2021/12/02 00:18:18;;;;;;;5.97;1.80;;;3.80;99.90;;;;;;4928254;28;89947;-41
2021/12/02 00:24:03;;;;;;;9.15;2.17;;;3.70;99.90;;;;;;4932826;28;87898;-40
2021/12/02 00:26:30;;;;;;;8.02;1.83;;;3.60;99.90;;;;;;4933322;28;86669;-39
2021/12/02 00:28:58;;;;;;;7.15;1.70;;;3.60;99.90;;;;;;4933095;28;89863;-40
2021/12/02 00:31:29;;;;;;;9.73;1.98;;;3.60;99.90;;;;;;4932092;28;88581;-40
2021/12/02 00:33:57;;;;;;;4.28;2.33;;;3.50;99.90;;;;;;4932414;28;88378;-40
2021/12/02 00:36:25;;;;;;;5.07;2.03;;;3.50;99.90;;;;;;4933081;28;87655;-40
2021/12/02 00:38:51;;;;;;;5.70;1.70;;;3.50;99.90;;;;;;4933222;28;88658;-40
2021/12/02 00:41:23;;;;;;;5.82;2.60;;;3.50;99.90;;;;;;4932478;28;89397;-40
2021/12/02 00:43:50;;;;;;;8.07;2.45;;;3.50;99.90;;;;;;4933031;28;86595;-40
2021/12/02 00:46:18;;;;;;;6.82;2.20;;;3.50;99.90;;;;;;4933011;28;88501;-39
2021/12/02 00:48:45;;;;;;;5.43;2.70;;;3.40;99.90;;;;;;4932768;28;88777;-40
2021/12/02 00:51:12;;;;;;;5.05;1.83;;;3.40;99.90;;;;;;4931962;28;90412;-40
2021/12/02 00:53:43;;;;;;;3.67;1.90;;;3.40;99.90;;;;;;4931839;28;87954;-40
2021/12/02 00:56:11;;;;;;;6.70;2.05;;;3.30;99.90;;;;;;4932715;28;87859;-40
2021/12/02 00:58:37;;;;;;;8.23;2.17;;;3.30;99.90;;;;;;4931995;28;89254;-40
2021/12/02 01:01:04;;;;;;;5.95;1.63;;;3.30;99.90;;;;;;4932129;28;89945;-41
2021/12/02 01:03:35;;;;;;;5.55;2.22;;;3.20;99.90;;;;;;4931841;28;88571;-40
2021/12/02 01:06:03;;;;;;;5.13;1.30;;;3.20;99.90;;;;;;4931630;28;86747;-40
2021/12/02 01:08:30;;;;;;;4.93;2.05;;;3.20;99.90;;;;;;4931704;28;89369;-40
2021/12/02 01:10:56;;;;;;;3.53;1.40;;;3.20;99.90;;;;;;4931584;28;88512;-38
2021/12/02 01:13:22;;;;;;;7.82;2.10;;;3.20;99.90;;;;;;4946474;28;88470;-40
2021/12/02 01:18:17;;;;;;;7.57;1.83;;;3.10;99.90;;;;;;4951019;28;89956;-36
2021/12/02 01:20:45;;;;;;;5.32;2.22;;;3.10;99.90;;;;;;4951619;28;90283;-35
2021/12/02 01:23:12;;;;;;;6.80;2.20;;;3.00;99.90;;;;;;4952650;28;89338;-35
2021/12/02 01:25:40;;;;;;;6.40;2.08;;;3.00;99.90;;;;;;4951757;28;88182;-36
2021/12/02 01:28:07;;;;;;;10.70;2.53;;;3.00;99.90;;;;;;4952204;28;87849;-35
2021/12/02 01:30:32;;;;;;;4.90;2.00;;;3.00;99.90;;;;;;4952288;28;88933;-34
2021/12/02 01:33:04;;;;;;;7.35;2.50;;;3.00;99.90;;;;;;4951453;28;88225;-36
2021/12/02 01:35:32;;;;;;;3.90;1.90;;;3.00;99.90;;;;;;4950288;28;86614;-34
2021/12/02 01:37:58;;;;;;;3.25;2.03;;;3.10;99.90;;;;;;4952145;28;88775;-36
2021/12/02 01:40:24;;;;;;;6.38;2.47;;;3.00;99.90;;;;;;4951735;28;88568;-35
2021/12/02 01:42:55;;;;;;;8.55;1.92;;;3.00;99.90;;;;;;4951909;28;88563;-35
2021/12/02 01:45:26;;;;;;;7.03;2.63;;;3.00;99.90;;;;;;4951972;28;88048;-35
2021/12/02 01:47:54;;;;;;;3.38;1.65;;;3.10;99.90;;;;;;4952212;28;89264;-35
2021/12/02 01:50:23;;;;;;;3.03;1.53;;;3.10;99.90;;;;;;4952373;28;88703;-35
2021/12/02 01:53:00;;;;;;;7.70;1.65;;;3.10;99.90;;;;;;4951132;28;89945;-35
2021/12/02 01:55:28;;;;;;;8.38;2.97;;;3.10;99.90;;;;;;4950975;28;87493;-37
2021/12/02 01:58:01;;;;;;;2.55;1.58;;;3.00;99.90;;;;;;4951228;28;89532;-35
2021/12/02 02:00:32;;;;;;;6.13;1.90;;;3.00;99.90;;;;;;4951517;28;89241;-36
2021/12/02 02:03:00;;;;;;;9.82;1.80;;;3.00;99.90;;;;;;4935231;28;88819;-36
2021/12/02 02:05:25;;;;;;;4.47;1.88;;;3.00;99.90;;;;;;4951327;28;87374;-36
2021/12/02 02:07:58;;;;;;;3.40;2.38;;;3.00;99.90;;;;;;4951707;28;88777;-36
2021/12/02 02:10:25;;;;;;;3.63;1.52;;;3.00;99.90;;;;;;4950852;28;89567;-35
2021/12/02 02:12:51;;;;;;;2.85;1.42;;;3.10;99.90;;;;;;4950335;28;89558;-36
2021/12/02 02:15:17;;;;;;;7.15;2.25;;;3.10;99.90;;;;;;4952356;28;87597;-34
2021/12/02 02:17:54;;;;;;;9.27;1.42;;;3.20;99.90;;;;;;4950742;28;89244;-36
2021/12/02 02:20:25;;;;;;;6.88;1.52;;;3.20;99.90;;;;;;4951247;28;88770;-35
2021/12/02 02:22:50;;;;;;;3.55;1.67;;;3.20;99.90;;;;;;4951245;28;88324;-36
2021/12/02 02:25:18;;;;;;;4.90;1.85;;;3.20;99.90;;;;;;4952102;28;87731;-35
2021/12/02 02:27:45;;;;;;;8.88;1.77;;;3.20;99.90;;;;;;4951443;28;89286;-35
2021/12/02 02:30:11;;;;;;;4.90;2.08;;;3.30;99.90;;;;;;4951035;28;87755;-36
2021/12/02 02:32:37;;;;;;;4.85;1.77;;;3.30;99.90;;;;;;4951390;28;88537;-35
2021/12/02 02:35:04;;;;;;;5.03;1.42;;;3.30;99.90;;;;;;4950771;28;89132;-34
2021/12/02 02:37:33;;;;;;;4.00;1.30;;;3.20;99.90;;;;;;4951082;28;88973;-35
2021/12/02 02:40:02;;;;;;;8.50;1.85;;;3.20;99.90;;;;;;4951084;28;89019;-35
2021/12/02 02:42:28;;;;;;;3.70;1.63;;;3.10;99.90;;;;;;4950177;28;89040;-35
2021/12/02 02:44:54;;;;;;;4.85;2.33;;;3.10;99.90;;;;;;4951843;28;87714;-34
2021/12/02 02:47:24;;;;;;;1.75;0.85;;;3.10;99.90;;;;;;4941874;28;90055;-35
2021/12/02 02:49:49;;;;;;;5.22;1.67;;;3.00;99.90;;;;;;4930723;28;88745;-35
2021/12/02 02:52:15;;;;;;;6.32;1.75;;;3.00;99.90;;;;;;4931856;28;88142;-34
2021/12/02 02:54:41;;;;;;;2.85;1.30;;;3.00;99.90;;;;;;4931770;28;88218;-33
2021/12/02 02:57:09;;;;;;;4.10;1.73;;;2.90;99.90;;;;;;4931621;28;89044;-36
2021/12/02 03:14:54;;;;;;;3.22;1.13;;;2.80;99.90;;;;;;4931723;28;88302;-35
2021/12/02 03:17:20;;;;;;;2.65;1.20;;;2.70;99.90;;;;;;4947098;28;89435;-34
2021/12/02 03:19:47;;;;;;;5.10;1.38;;;2.80;99.90;;;;;;4930961;28;88722;-36
2021/12/02 03:22:14;;;;;;;2.55;1.10;;;2.70;99.90;;;;;;4931223;28;88641;-35
2021/12/02 03:24:40;;;;;;;2.40;1.30;;;2.70;99.90;;;;;;4930896;28;89364;-34
2021/12/02 03:27:06;;;;;;;3.30;1.23;;;2.70;99.90;;;;;;4930639;28;90329;-35
2021/12/02 03:29:32;;;;;;;3.65;1.52;;;2.70;99.90;;;;;;4946457;28;88693;-35
2021/12/02 03:31:58;;;;;;;1.98;1.20;;;2.70;99.90;;;;;;4931945;28;88071;-36
2021/12/02 03:34:24;;;;;;;4.35;1.40;;;2.70;99.90;;;;;;4930773;28;88478;-35
2021/12/02 03:36:50;;;;;;;1.33;1.08;;;2.70;99.90;;;;;;4931133;28;88969;-36
2021/12/02 03:39:16;;;;;;;2.15;1.20;;;2.60;99.90;;;;;;4931710;28;89075;-35
2021/12/02 03:41:42;;;;;;;1.55;1.20;;;2.60;99.90;;;;;;4930642;28;88673;-34
2021/12/02 03:44:08;;;;;;;3.13;0.90;;;2.50;99.90;;;;;;4931899;28;87979;-33
2021/12/02 03:46:35;;;;;;;0.60;0.60;;;2.50;99.90;;;;;;4929695;28;89126;-35
2021/12/02 03:49:01;;;;;;;2.35;1.08;;;2.50;99.90;;;;;;4930764;28;90017;-35
2021/12/02 03:51:27;;;;;;;5.47;0.95;;;2.50;99.90;;;;;;4931005;28;88589;-37
2021/12/02 03:53:53;;;;;;;2.40;1.20;;;2.50;99.90;;;;;;4931362;28;88737;-35
2021/12/02 03:56:20;;;;;;;2.42;1.85;;;2.40;99.90;;;;;;4930818;28;87880;-36
2021/12/02 03:58:47;;;;;;;4.38;0.90;;;2.40;99.90;;;;;;4945979;28;88769;-35
2021/12/02 04:01:14;;;;;;;3.28;1.10;;;2.40;99.90;;;;;;4930845;28;88526;-35
2021/12/02 04:03:40;;;;;;;2.25;0.55;;;2.40;99.90;;;;;;4930453;28;88484;-34
2021/12/02 04:06:07;;;;;;;3.33;0.60;;;2.40;99.90;;;;;;4946515;28;91192;-35
2021/12/02 04:08:45;;;;;;;2.72;1.20;;;2.40;99.90;;;;;;4930707;28;90039;-35
2021/12/02 04:11:28;;;;;;;1.33;0.75;;;2.40;99.90;;;;;;4930596;28;87848;-35
2021/12/02 04:14:06;;;;;;;2.53;1.05;;;2.40;99.90;;;;;;4930622;28;88182;-35
2021/12/02 04:16:35;;;;;;;2.50;1.15;;;2.40;99.90;;;;;;4929984;28;89252;-35
2021/12/02 04:19:01;;;;;;;3.25;1.15;;;2.40;99.90;;;;;;4931075;28;88670;-35
2021/12/02 04:21:26;;;;;;;1.67;1.17;;;2.50;99.90;;;;;;4929519;28;89236;-37
2021/12/02 04:23:52;;;;;;;2.10;0.93;;;2.50;99.90;;;;;;4931295;28;87889;-36
2021/12/02 04:26:18;;;;;;;1.05;0.88;;;2.50;99.90;;;;;;4930394;28;88687;-34
2021/12/02 04:28:43;;;;;;;2.75;1.15;;;2.50;99.90;;;;;;4929838;28;88639;-35
2021/12/02 04:31:09;;;;;;;4.35;1.17;;;2.50;99.90;;;;;;4930818;28;88497;-35
2021/12/02 04:33:34;;;;;;;2.00;0.95;;;2.40;99.90;;;;;;4930326;28;87238;-35
2021/12/02 04:36:00;;;;;;;1.35;1.05;;;2.40;99.90;;;;;;4945999;28;91530;-35
2021/12/02 04:38:27;;;;;;;1.15;0.85;;;2.40;99.90;;;;;;4929126;28;89367;-36
2021/12/02 04:40:54;;;;;;;3.60;1.33;;;2.40;99.90;;;;;;4929177;28;90737;-34
2021/12/02 04:43:19;;;;;;;2.50;1.20;;;2.30;99.90;;;;;;4930610;28;87868;-35
2021/12/02 04:45:45;;;;;;;2.60;1.02;;;2.30;99.90;;;;;;4929890;28;89300;-35
2021/12/02 04:48:10;;;;;;;1.33;1.13;;;2.30;99.90;;;;;;4930590;28;88188;-36
2021/12/02 04:50:36;;;;;;;2.88;1.27;;;2.30;99.90;;;;;;4929745;28;90045;-34
2021/12/02 04:53:02;;;;;;;2.72;1.60;;;2.30;99.90;;;;;;4930256;28;87634;-35
2021/12/02 04:55:28;;;;;;;1.10;1.00;;;2.30;99.90;;;;;;4945926;28;87945;-35
2021/12/02 04:57:54;;;;;;;2.22;1.92;;;2.20;99.90;;;;;;4929886;28;89671;-35
2021/12/02 05:00:20;;;;;;;2.72;1.30;;;2.20;99.90;;;;;;4929888;28;87939;-36
2021/12/02 05:02:46;;;;;;;2.22;1.40;;;2.20;99.90;;;;;;4929701;28;88156;-35
2021/12/02 05:05:12;;;;;;;5.30;1.55;;;2.20;99.90;;;;;;4929571;28;87830;-34
2021/12/02 05:07:38;;;;;;;2.08;1.50;;;2.20;99.90;;;;;;4930059;28;89036;-35
2021/12/02 05:10:05;;;;;;;1.33;1.20;;;2.20;99.90;;;;;;4931384;28;88298;-35
2021/12/02 05:12:32;;;;;;;3.43;1.40;;;2.20;99.90;;;;;;4932896;28;88084;-35
2021/12/02 05:14:57;;;;;;;2.10;1.38;;;2.10;99.90;;;;;;4934068;28;87770;-35
2021/12/02 05:17:23;;;;;;;1.88;1.23;;;2.10;99.90;;;;;;4933141;28;88913;-36
2021/12/02 05:19:49;;;;;;;1.85;1.30;;;2.00;99.90;;;;;;4933436;28;88566;-35
2021/12/02 05:22:15;;;;;;;4.75;1.75;;;2.00;99.90;;;;;;4933665;28;87255;-35
2021/12/02 05:24:40;;;;;;;1.63;1.20;;;1.90;99.90;;;;;;4932763;28;88598;-35
2021/12/02 05:27:06;;;;;;;1.83;1.48;;;1.90;99.90;;;;;;4932810;28;89240;-34
2021/12/02 05:29:32;;;;;;;4.53;1.15;;;1.90;99.90;;;;;;4932357;28;88146;-35
2021/12/02 05:31:59;;;;;;;3.15;1.38;;;1.90;99.90;;;;;;4932024;28;87893;-35
2021/12/02 05:34:24;;;;;;;3.10;1.40;;;1.90;99.90;;;;;;4933230;28;88345;-34
2021/12/02 05:36:50;;;;;;;1.40;1.20;;;1.90;99.90;;;;;;4932655;28;89129;-35
2021/12/02 05:39:16;;;;;;;3.05;1.20;;;1.90;99.90;;;;;;4932690;28;89099;-36
2021/12/02 05:41:42;;;;;;;1.45;0.88;;;1.90;99.90;;;;;;4931653;28;87898;-34
2021/12/02 05:44:08;;;;;;;2.50;1.05;;;1.90;99.90;;;;;;4933304;28;91658;-35
2021/12/02 05:46:34;;;;;;;1.58;1.00;;;1.90;99.90;;;;;;4932945;28;88847;-36
2021/12/02 05:48:59;;;;;;;0.90;0.90;;;1.90;99.90;;;;;;4947997;28;88705;-35
2021/12/02 05:51:25;;;;;;;1.55;0.88;;;1.90;99.90;;;;;;4933355;28;88914;-37
2021/12/02 05:53:50;;;;;;;2.20;1.20;;;2.00;99.90;;;;;;4932354;28;89047;-35
2021/12/02 05:56:16;;;;;;;0.98;0.80;;;2.00;99.90;;;;;;4932349;28;88458;-35
2021/12/02 05:58:42;;;;;;;3.67;0.90;;;2.00;99.90;;;;;;4932149;28;88260;-35
2021/12/02 06:01:07;;;;;;;2.83;1.00;;;1.90;99.90;;;;;;4932976;28;88067;-35
2021/12/02 06:03:36;;;;;;;1.23;0.85;;;2.00;99.90;;;;;;4931366;28;89141;-35
2021/12/02 06:06:05;;;;;;;2.38;0.88;;;1.90;99.90;;;;;;4931888;28;89082;-35
2021/12/02 06:08:31;;;;;;;1.40;1.15;;;2.00;99.90;;;;;;4932134;28;88052;-35
2021/12/02 06:10:57;;;;;;;2.58;0.80;;;2.00;99.90;;;;;;4948284;28;88478;-35
2021/12/02 06:13:24;;;;;;;3.17;1.42;;;2.00;99.90;;;;;;4932091;28;90603;-34
2021/12/02 06:15:50;;;;;;;3.07;1.40;;;2.00;99.90;;;;;;4947626;28;89127;-35
2021/12/02 06:18:16;;;;;;;1.95;1.02;;;2.00;99.90;;;;;;4932255;28;89669;-35
2021/12/02 06:20:42;;;;;;;3.42;1.35;;;2.00;99.90;;;;;;4931670;28;87322;-35
2021/12/02 06:23:08;;;;;;;1.10;1.00;;;2.00;99.90;;;;;;4931502;28;89258;-35
2021/12/02 06:27:59;;;;;;;1.98;1.38;;;2.00;99.90;;;;;;4932105;28;88736;-35
2021/12/02 06:30:26;;;;;;;1.90;1.20;;;2.00;99.90;;;;;;4932356;28;87338;-36
2021/12/02 06:32:52;;;;;;;1.48;1.25;;;2.00;99.90;;;;;;4931324;28;89892;-35
2021/12/02 06:35:18;;;;;;;1.40;1.27;;;2.00;99.90;;;;;;4930881;28;88958;-34
2021/12/02 06:37:46;;;;;;;1.92;1.23;;;2.00;99.90;;;;;;4932002;28;88282;-35
2021/12/02 06:40:12;;;;;;;2.65;1.40;;;2.00;99.90;;;;;;4931670;28;88500;-35
2021/12/02 06:42:39;;;;;;;1.27;1.13;;;2.00;99.90;;;;;;4931689;28;88110;-36
2021/12/02 06:45:05;;;;;;;2.85;1.48;;;2.00;99.90;;;;;;4931457;28;88833;-35
2021/12/02 06:47:35;;;;;;;1.27;1.00;;;2.00;99.90;;;;;;4931955;28;87187;-35
2021/12/02 06:50:02;;;;;;;1.85;1.00;;;2.10;99.90;;;;;;4932467;28;88798;-34
2021/12/02 06:52:29;;;;;;;7.40;1.67;;;2.10;99.90;;;;;;4931365;28;90089;-35
2021/12/02 06:54:55;;;;;;;1.63;1.00;;;2.10;99.90;;;;;;4931591;28;88588;-35
2021/12/02 06:57:20;;;;;;;1.05;0.82;;;2.10;99.90;;;;;;4931117;28;89214;-34
2021/12/02 06:59:46;;;;;;;2.13;1.40;;;2.10;99.90;;;;;;4931674;28;88086;-36
2021/12/02 07:02:12;;;;;;;1.40;1.30;;;2.10;99.90;;;;;;4931901;28;89105;-35
2021/12/02 07:04:38;;;;;;;4.00;1.13;;;2.10;99.90;;;;;;4930356;28;90757;-35
2021/12/02 07:07:03;;;;;;;1.40;1.17;;;2.10;99.90;;;;;;4931091;28;89248;-34
2021/12/02 07:09:29;;;;;;;3.38;1.20;;;2.10;99.90;;;;;;4932217;28;88272;-34
2021/12/02 07:11:55;;;;;;;4.53;1.60;;;2.10;99.90;;;;;;4930911;28;91412;-35
2021/12/02 07:14:22;;;;;;;1.73;1.10;;;2.10;99.90;;;;;;4931219;28;90174;-35
2021/12/02 07:16:47;;;;;;;1.73;0.82;;;2.10;99.90;;;;;;4930565;28;88894;-35
2021/12/02 07:19:13;;;;;;;2.45;1.48;;;2.10;99.90;;;;;;4931800;28;88417;-35
2021/12/02 07:21:40;;;;;;;2.58;1.42;;;2.10;99.90;;;;;;4931855;28;89408;-35
2021/12/02 07:24:14;;;;;;;2.42;0.93;;;2.10;99.90;;;;;;4931372;28;88734;-35
2021/12/02 07:26:42;;;;;;;3.13;1.30;;;2.10;99.90;;;;;;4946683;28;89923;-34
2021/12/02 07:29:09;;;;;;;2.83;1.40;;;2.10;99.90;;;;;;4930967;28;88770;-36
2021/12/02 07:31:34;;;;;;;4.70;1.55;;;2.10;99.90;;;;;;4930813;28;88335;-35
2021/12/02 07:34:02;;;;;;;2.38;1.45;;;2.10;99.90;;;;;;4930310;28;87362;-35
2021/12/02 07:36:29;;;;;;;2.28;2.03;;;2.10;99.90;;;;;;4931134;28;88735;-35
2021/12/02 07:38:55;;;;;;;4.65;1.60;;;2.10;99.90;;;;;;4946750;28;87478;-35
2021/12/02 07:41:21;;;;;;;2.22;1.88;;;2.10;99.90;;;;;;4941436;28;87982;-36
2021/12/02 07:43:47;;;;;;;3.38;1.88;;;2.10;99.90;;;;;;4944012;28;87393;-35
2021/12/02 07:46:12;;;;;;;2.28;1.70;;;2.00;99.90;;;;;;4946587;28;88280;-35
2021/12/02 07:48:38;;;;;;;1.55;1.42;;;2.10;99.90;;;;;;4931575;28;87426;-35
2021/12/02 07:51:09;;;;;;;2.97;1.88;;;2.10;99.90;;;;;;4914060;28;91232;-34
2021/12/02 07:53:40;;;;;;;3.42;1.92;;;2.10;99.90;;;;;;4930715;28;89053;-35
2021/12/02 07:56:09;;;;;;;2.60;1.63;;;2.10;99.90;;;;;;4867069;27;89326;-35
2021/12/02 07:58:38;;;;;;;1.80;1.40;;;2.10;99.90;;;;;;4950179;28;88605;-35
2021/12/02 08:01:03;;;;;;;7.72;1.50;;;2.10;99.90;;;;;;4949998;28;90456;-35
2021/12/02 08:03:29;;;;;;;2.83;1.70;;;2.10;99.90;;;;;;4949659;28;88666;-35
2021/12/02 08:05:56;;;;;;;2.75;1.58;;;2.10;99.90;;;;;;4950770;28;88439;-35
2021/12/02 08:08:22;;;;;;;2.22;1.75;;;2.10;99.90;;;;;;4951013;28;87679;-35
2021/12/02 08:10:48;;;;;;;6.82;1.88;;;2.10;99.90;;;;;;4965795;28;89192;-35
2021/12/02 08:13:14;;;;;;;5.85;1.83;;;2.10;99.90;;;;;;4950987;28;88357;-33
2021/12/02 08:15:41;;;;;;;2.03;1.83;;;2.10;99.90;;;;;;4949523;28;88290;-34
2021/12/02 08:18:08;;;;;;;1.90;1.60;;;2.20;99.90;;;;;;4949318;28;88866;-34
2021/12/02 08:20:35;;;;;;;1.95;1.85;;;2.20;99.90;;;;;;4949977;28;89763;-32
2021/12/02 08:23:00;;;;;;;2.08;1.88;;;2.30;99.90;;;;;;4937606;28;88589;-34
2021/12/02 08:25:27;;;;;;;2.08;1.98;;;2.30;99.90;;;;;;4950030;28;88797;-34
2021/12/02 08:27:55;;;;;;;4.80;1.75;;;2.40;99.90;;;;;;4950006;28;87715;-33
2021/12/02 08:30:24;;;;;;;1.90;1.80;;;2.40;99.90;;;;;;4949950;28;90601;-34
2021/12/02 08:32:50;;;;;;;6.38;1.67;;;2.50;99.90;;;;;;4948222;28;90100;-34
2021/12/02 08:35:18;;;;;;;6.70;2.08;;;2.50;99.90;;;;;;4949042;28;88898;-34
2021/12/02 08:37:45;;;;;;;2.33;1.65;;;2.50;99.90;;;;;;4929347;28;87757;-34
2021/12/02 08:40:22;;;;;;;2.37;1.97;;;2.50;99.90;;;;;;4929323;28;89040;-33
2021/12/02 08:42:48;;;;;;;2.58;1.90;;;2.60;99.90;;;;;;4928051;28;89708;-34
2021/12/02 08:45:16;;;;;;;4.25;1.83;;;2.60;99.90;;;;;;4932112;28;89753;-34
2021/12/02 08:47:45;;;;;;;3.53;2.25;;;2.60;99.90;;;;;;4932147;28;88088;-34
2021/12/02 08:50:13;;;;;;;2.55;1.73;;;2.70;99.90;;;;;;4931481;28;91155;-34
2021/12/02 08:52:39;;;;;;;1.55;1.45;;;2.70;99.90;;;;;;4931571;28;88360;-34
2021/12/02 08:55:05;;;;;;;2.83;1.85;;;2.80;99.90;;;;;;4932010;28;88355;-35
2021/12/02 08:57:31;;;;;;;3.05;2.15;;;2.80;99.90;;;;;;4931282;28;87780;-34
2021/12/02 08:59:56;;;;;;;1.95;1.75;;;2.90;99.90;;;;;;4931708;28;89331;-34
2021/12/02 09:02:22;;;;;;;2.70;2.22;;;3.00;99.90;;;;;;4941613;28;89027;-34
2021/12/02 09:04:47;;;;;;;2.67;2.05;;;3.20;99.90;;;;;;4950242;28;88831;-34
2021/12/02 09:07:14;;;;;;;2.05;1.95;;;3.30;99.90;;;;;;4933642;28;88984;-34
2021/12/02 09:09:40;;;;;;;7.20;2.05;;;3.30;99.90;;;;;;4951162;28;89239;-33
2021/12/02 09:12:08;;;;;;;2.65;2.10;;;3.20;99.90;;;;;;4950690;28;88862;-34
2021/12/02 09:14:34;;;;;;;2.83;2.08;;;3.20;99.90;;;;;;4950618;28;88540;-34
2021/12/02 09:17:00;;;;;;;2.30;2.10;;;3.20;99.90;;;;;;4951009;28;87379;-34
2021/12/02 09:19:26;;;;;;;2.08;1.98;;;3.30;99.90;;;;;;4950140;28;90716;-34
2021/12/02 09:21:51;;;;;;;5.05;1.95;;;3.30;99.90;;;;;;4950379;28;88758;-34
2021/12/02 09:24:18;;;;;;;2.33;2.13;;;3.30;99.90;;;;;;4951162;28;88373;-34
2021/12/02 09:26:52;;;;;;;2.75;2.40;;;3.30;99.90;;;;;;4949473;28;87550;-33
2021/12/02 09:29:19;;;;;;;2.78;2.47;;;3.20;99.90;;;;;;4951012;28;91733;-34
2021/12/02 09:31:46;;;;;;;2.42;2.22;;;3.30;99.90;;;;;;4948619;28;89449;-34
2021/12/02 09:34:12;;;;;;;2.72;2.42;;;3.20;99.90;;;;;;4966539;28;90103;-33
2021/12/02 09:36:38;;;;;;;3.30;2.97;;;3.20;99.90;;;;;;4950312;28;88638;-34
2021/12/02 09:39:07;;;;;;;3.20;2.38;;;3.30;99.90;;;;;;4950499;28;87940;-34
2021/12/02 09:41:34;;;;;;;2.97;2.20;;;3.40;99.90;;;;;;4949347;28;88799;-34
2021/12/02 09:43:59;;;;;;;3.30;2.10;;;3.50;99.90;;;;;;4950683;28;88275;-34
2021/12/02 09:46:25;;;;;;;4.60;2.67;;;3.60;99.90;;;;;;4950450;28;88089;-36
2021/12/02 09:48:53;;;;;;;2.97;2.08;;;3.60;99.90;;;;;;4951510;28;89001;-33
2021/12/02 09:51:25;;;;;;;2.80;2.00;;;3.70;99.90;;;;;;4950585;28;88735;-33
2021/12/02 09:56:26;;;;;;;3.05;2.08;;;3.90;99.90;;;;;;4948363;28;87834;-34
2021/12/02 09:58:55;;;;;;;2.42;2.10;;;4.10;99.90;;;;;;4950306;28;89021;-34
2021/12/02 10:01:25;;;;;;;2.05;1.90;;;4.20;99.90;;;;;;4933486;28;90320;-34
2021/12/02 10:03:58;;;;;;;5.95;1.80;;;4.20;99.90;;;;;;4950194;28;88191;-34
2021/12/02 10:06:30;;;;;;;2.28;1.67;;;4.20;99.90;;;;;;4950444;28;88486;-35
2021/12/02 10:11:50;;;;;;;5.10;1.95;;;4.20;99.90;;;;;;4949874;28;88227;-34
2021/12/02 10:14:21;;;;;;;1.73;1.63;;;4.30;99.90;;;;;;4950339;28;88911;-34
2021/12/02 10:16:48;;;;;;;1.80;1.63;;;4.30;99.90;;;;;;4964943;28;87430;-35
2021/12/02 10:19:20;;;;;;;1.73;1.63;;;4.40;99.90;;;;;;4950151;28;89195;-35
2021/12/02 10:22:04;;;;;;;2.38;2.00;;;4.40;99.90;;;;;;4949381;28;89776;-35
2021/12/02 10:24:31;;;;;;;1.63;1.52;;;4.30;99.90;;;;;;4950826;28;89964;-33
2021/12/02 10:26:59;;;;;;;1.77;1.67;;;4.40;99.90;;;;;;4948925;28;87647;-35
2021/12/02 10:29:29;;;;;;;4.85;1.90;;;4.50;99.90;;;;;;4950410;28;88208;-34
2021/12/02 10:32:11;;;;;;;1.63;1.52;;;4.50;99.90;;;;;;4950470;28;88934;-34
2021/12/02 10:34:47;;;;;;;1.92;1.80;;;4.60;99.90;;;;;;4949119;28;88353;-35
2021/12/02 10:37:13;;;;;;;1.80;1.60;;;4.60;99.90;;;;;;4966425;28;88052;-34
2021/12/02 10:39:39;;;;;;;4.53;2.25;;;4.70;99.90;;;;;;4948819;28;89827;-34
2021/12/02 10:42:08;;;;;;;3.08;1.95;;;4.80;99.90;;;;;;4949096;28;88096;-33
2021/12/02 10:44:35;;;;;;;2.22;2.00;;;4.90;99.90;;;;;;4949384;28;89260;-35
2021/12/02 10:47:03;;;;;;;5.28;1.77;;;5.00;99.90;;;;;;4949482;28;87810;-34
2021/12/02 10:49:31;;;;;;;;;;;5.10;99.90;;;;;;4965340;28;91030;-33
2021/12/02 10:52:01;;;;;;;2.10;1.70;;;5.00;99.90;;;;;;4950175;28;88405;-35
2021/12/02 10:54:35;;;;;;;2.03;1.60;;;4.90;99.90;;;;;;4948526;28;88363;-34
2021/12/02 10:57:10;;;;;;;2.22;2.00;;;4.80;99.90;;;;;;4949563;28;86811;-35
2021/12/02 10:59:52;;;;;;;2.72;1.58;;;4.70;99.90;;;;;;4932886;28;89937;-34
2021/12/02 11:02:29;;;;;;;3.78;2.47;;;4.60;99.90;;;;;;4964530;28;88715;-35
2021/12/02 11:04:59;;;;;;;3.50;2.67;;;4.50;99.90;;;;;;4949379;28;88794;-34
2021/12/02 11:07:33;;;;;;;2.65;2.45;;;4.30;99.90;;;;;;4949325;28;88686;-36
2021/12/02 11:10:02;;;;;;;4.20;2.28;;;4.10;99.90;;;;;;4949131;28;89130;-34
2021/12/02 11:12:36;;;;;;;5.13;2.28;;;4.20;99.90;;;;;;4948303;28;90102;-34
2021/12/02 11:15:07;;;;;;;2.60;1.77;;;4.00;99.90;;;;;;4948319;28;91129;-34
2021/12/02 11:17:37;;;;;;;2.10;1.17;;;3.80;99.90;;;;;;4948945;28;88048;-34
2021/12/02 11:20:07;;;;;;;2.45;1.27;;;3.80;99.90;;;;;;4949814;28;89227;-33
2021/12/02 11:22:33;;;;;;;2.10;0.90;;;3.70;99.90;;;;;;4948273;28;88592;-34
2021/12/02 11:24:59;;;;;;;2.47;1.20;;;3.60;99.90;;;;;;4949063;28;88499;-35
2021/12/02 11:27:35;;;;;;;1.15;0.90;;;3.60;99.90;;;;;;4949611;28;88099;-36
2021/12/02 11:30:12;;;;;;;3.45;1.10;;;3.50;99.90;;;;;;4964627;28;88849;-35
2021/12/02 11:33:03;;;;;;;1.50;1.00;;;3.50;99.90;;;;;;4963934;28;89206;-34
2021/12/02 11:35:33;;;;;;;4.97;1.30;;;3.40;99.90;;;;;;4948197;28;87791;-33
2021/12/02 11:38:14;;;;;;;1.73;1.00;;;3.40;99.90;;;;;;4963882;28;88175;-33
2021/12/02 11:40:43;;;;;;;0.77;0.73;;;3.40;99.90;;;;;;4948008;28;90586;-34
2021/12/02 11:43:11;;;;;;;1.23;1.10;;;3.40;99.90;;;;;;4931790;28;88532;-34
2021/12/02 11:45:43;;;;;;;1.50;0.88;;;3.40;99.90;;;;;;4948240;28;88667;-35
2021/12/02 11:48:11;;;;;;;2.13;1.23;;;3.40;99.90;;;;;;4948201;28;88286;-34
2021/12/02 11:50:37;;;;;;;2.08;1.65;;;3.40;99.90;;;;;;4948607;28;89337;-35
2021/12/02 11:53:02;;;;;;;1.48;1.10;;;3.40;99.90;;;;;;4948454;28;88838;-34
2021/12/02 11:55:32;;;;;;;1.40;1.30;;;3.40;99.90;;;;;;4949065;28;87743;-35
2021/12/02 11:57:58;;;;;;;5.03;1.77;;;3.40;99.90;;;;;;4949093;28;88119;-34
2021/12/02 12:00:25;;;;;;;7.72;1.45;;;3.30;99.90;;;;;;4948694;28;90635;-34
2021/12/02 12:02:56;;;;;;;3.83;1.23;;;3.30;99.90;;;;;;4948564;28;89461;-34
2021/12/02 12:05:45;;;;;;;4.25;1.23;;;3.30;99.90;;;;;;4949084;28;87858;-33
2021/12/02 12:08:33;;;;;;;2.13;1.73;;;3.40;99.90;;;;;;4948405;28;87777;-33
2021/12/02 12:11:23;;;;;;;1.85;1.27;;;3.30;99.90;;;;;;4943447;28;89109;-34
2021/12/02 12:13:55;;;;;;;1.23;1.05;;;3.40;99.90;;;;;;4947304;28;88600;-34
2021/12/02 12:16:23;;;;;;;1.83;0.80;;;3.50;99.90;;;;;;4948149;28;89821;-34
2021/12/02 12:18:49;;;;;;;1.50;1.10;;;3.40;99.90;;;;;;4949173;28;88029;-35
2021/12/02 12:21:15;;;;;;;0.90;0.90;;;3.30;99.90;;;;;;4934671;28;89932;-34
2021/12/02 12:23:42;;;;;;;1.27;1.17;;;3.30;99.90;;;;;;4951708;28;89003;-34
2021/12/02 12:26:21;;;;;;;1.02;0.73;;;3.00;99.90;;;;;;4967804;28;89561;-33
2021/12/02 12:29:08;;;;;;;1.30;1.20;;;2.90;99.90;;;;;;4951855;28;87963;-35
2021/12/02 12:32:08;;;;;;;1.20;1.20;;;2.70;99.90;;;;;;4967669;28;89330;-34
2021/12/02 12:37:23;;;;;;;1.92;1.48;;;2.60;99.90;;;;;;4950975;28;88234;-34
2021/12/02 12:40:26;;;;;;;1.50;1.40;;;2.70;99.90;;;;;;4952166;28;87705;-34
2021/12/02 12:42:58;;;;;;;1.55;1.42;;;2.80;99.90;;;;;;4934286;28;89796;-36
2021/12/02 12:45:25;;;;;;;3.05;1.90;;;2.80;99.90;;;;;;4951090;28;89244;-34
2021/12/02 12:47:54;;;;;;;1.85;1.70;;;2.90;99.90;;;;;;4951738;28;88499;-34
2021/12/02 12:50:34;;;;;;;2.60;2.40;;;3.00;99.90;;;;;;4951846;28;86954;-34
2021/12/02 12:53:02;;;;;;;5.53;3.55;;;3.00;99.90;;;;;;4966449;28;88060;-34
2021/12/02 12:55:28;;;;;;;3.45;2.85;;;3.10;99.90;;;;;;4967042;28;89544;-34
2021/12/02 12:58:14;;;;;;;3.80;3.50;;;3.00;99.90;;;;;;4950620;28;91391;-34
2021/12/02 13:00:47;;;;;;;9.65;3.67;;;3.10;99.90;;;;;;4950812;28;88102;-35
2021/12/02 13:03:16;;;;;;;4.00;3.60;;;3.10;99.90;;;;;;4966740;28;87961;-34
2021/12/02 13:05:53;;;;;;;6.25;5.65;;;3.10;99.90;;;;;;4950107;28;88912;-35
2021/12/02 13:08:49;;;;;;;6.97;5.90;;;3.10;99.90;;;;;;4950804;28;88149;-34
2021/12/02 13:11:20;;;;;;;5.68;5.07;;;3.10;99.90;;;;;;4948516;28;88685;-35
2021/12/02 13:13:48;;;;;;;4.15;3.85;;;3.00;99.90;;;;;;4951823;28;89057;-32
2021/12/02 13:19:13;;;;;;;2.40;2.22;;;3.00;99.90;;;;;;4929742;28;89024;-34
2021/12/02 13:21:40;;;;;;;;;;;2.80;99.90;;;;;;4929914;28;88395;-34
2021/12/02 13:24:10;;;;;;;1.55;1.45;;;2.80;99.90;;;;;;4933616;28;89034;-32
2021/12/02 13:26:41;;;;;;;2.60;1.67;;;2.70;99.90;;;;;;4931044;28;88494;-32
2021/12/02 13:29:13;;;;;;;1.33;1.23;;;2.70;99.90;;;;;;4931261;28;88312;-35
2021/12/02 13:31:53;;;;;;;1.45;1.35;;;2.70;99.90;;;;;;4930182;28;89058;-33
2021/12/02 13:34:23;;;;;;;1.52;1.42;;;2.70;99.90;;;;;;4930475;28;89440;-35
2021/12/02 13:36:55;;;;;;;1.35;1.10;;;2.70;99.90;;;;;;4931368;28;88685;-34
2021/12/02 13:39:32;;;;;;;1.30;1.20;;;2.70;99.90;;;;;;4931495;28;87075;-34